Jfe Mercury — JD2719 — position and weather

sailwx.info

Track history (hours):
 
Tides and Currents Weather Stations Pressure Air Temp Water Temp Dewpoint Dewpoint Depression Visibility Wind Speed Wind Dir Waves Ship Positions

Jfe Mercury

Last reported at 2018-Jun-22 02:31 UTC. Time now 2018-Jun-24 07:22 UTC.
Position N 33°45' E 135°09'.

Length 152 m; draft 4.1 m.

Type: Cargo ship. MMSI: 431000822.

Date/timePositionNaut miles runAvg speedWind from/ knotsBaromVisibWave heightAir tempDewpointWater temp
2018-Jun-22 02:31N 33°45' E 135°09'010.1
2018-Jun-22 02:29N 33°45' E 135°08'510.8
2018-Jun-22 02:00N 33°49' E 135°04'511.0
2018-Jun-22 01:30N 33°53' E 134°60'610.9
2018-Jun-22 01:00N 33°57' E 134°56'611.1
2018-Jun-22 00:30N 34°02' E 134°51'611.2
2018-Jun-22 00:00N 34°06' E 134°48'811.0
2018-Jun-21 23:19N 34°12' E 134°42'911.3
2018-Jun-21 22:32N 34°17' E 134°33'111.2
2018-Jun-21 22:29N 34°17' E 134°32'611.3
2018-Jun-21 21:59N 34°19' E 134°26'711.0
2018-Jun-21 21:19N 34°22' E 134°18'411.4
2018-Jun-21 20:59N 34°24' E 134°14'6 0.1
2018-Jun-20 05:06N 34°25' E 134°21'111.3
2018-Jun-20 05:00N 34°25' E 134°22'611.3
2018-Jun-20 04:30N 34°27' E 134°28'611.3
2018-Jun-20 04:00N 34°29' E 134°35'611.4
2018-Jun-20 03:30N 34°31' E 134°41'611.6
2018-Jun-20 03:00N 34°33' E 134°48'711.6
2018-Jun-20 02:22N 34°36' E 134°56'5 9.7
2018-Jun-20 01:50N 34°37' E 135°02'3 9.3
2018-Jun-20 01:30N 34°36' E 135°06'510.6
2018-Jun-20 01:00N 34°36' E 135°12'510.6
2018-Jun-20 00:30N 34°37' E 135°19'510.2
2018-Jun-20 00:00N 34°36' E 135°25'1 0.4
2018-Jun-19 21:56N 34°35' E 135°26'2 4.5
2018-Jun-19 21:31N 34°36' E 135°24'4 8.7
2018-Jun-19 21:01N 34°35' E 135°19'1 1.9
2018-Jun-19 20:28N 34°35' E 135°18'0 0.0
2018-Jun-19 19:58N 34°35' E 135°18'0 0.0
2018-Jun-19 19:25N 34°35' E 135°18'1 3.6
2018-Jun-19 19:00N 34°34' E 135°16'510.5
2018-Jun-19 18:30N 34°29' E 135°12'510.6
2018-Jun-19 18:00N 34°25' E 135°09'510.6
2018-Jun-19 17:30N 34°21' E 135°04'510.3
2018-Jun-19 17:00N 34°18' E 134°60'612.0
2018-Jun-19 16:30N 34°12' E 134°60'611.6
2018-Jun-19 16:01N 34°06' E 135°01'611.8
2018-Jun-19 15:30N 34°00' E 135°01'612.0
2018-Jun-19 15:01N 33°54' E 135°02'611.5
2018-Jun-19 14:28N 33°49' E 135°05'  
2018-Jun-16 18:13N 35°13' E 139°46'211.3
2018-Jun-16 18:00N 35°15' E 139°46'611.0
2018-Jun-16 17:30N 35°20' E 139°43'510.7
2018-Jun-16 17:00N 35°25' E 139°43'3 6.1
2018-Jun-16 16:30N 35°28' E 139°43'0 0.0
2018-Jun-16 16:00N 35°28' E 139°43'0 0.0
2018-Jun-16 15:30N 35°28' E 139°43'0 0.0
2018-Jun-16 15:00N 35°28' E 139°43'0 0.0
2018-Jun-16 14:30N 35°28' E 139°43'0 0.0
2018-Jun-16 13:57N 35°28' E 139°43'0 0.0
2018-Jun-16 13:30N 35°28' E 139°43'0 0.0
2018-Jun-16 13:00N 35°28' E 139°43'0 0.0
2018-Jun-16 12:30N 35°28' E 139°43'0 0.3
2018-Jun-16 12:00N 35°28' E 139°43'4 8.7
2018-Jun-16 11:30N 35°24' E 139°45'1 0.9
2018-Jun-16 10:59N 35°23' E 139°44'0 0.0
2018-Jun-16 10:29N 35°23' E 139°44'0 0.0
2018-Jun-16 09:59N 35°23' E 139°44'0 0.0
2018-Jun-16 09:29N 35°23' E 139°44'0 0.1
2018-Jun-16 08:59N 35°23' E 139°44'0 0.0
2018-Jun-16 08:29N 35°23' E 139°44'0 0.1
2018-Jun-16 07:59N 35°23' E 139°45'0 0.0
2018-Jun-16 07:29N 35°23' E 139°45'0 0.0
2018-Jun-16 06:59N 35°23' E 139°45'0 0.1
2018-Jun-16 06:29N 35°23' E 139°44'0 0.0
2018-Jun-16 05:59N 35°23' E 139°44'0 0.0
2018-Jun-16 05:29N 35°23' E 139°44'0 0.0
2018-Jun-16 04:59N 35°23' E 139°44'0 0.0
2018-Jun-16 04:29N 35°23' E 139°44'0 0.0
2018-Jun-16 03:59N 35°23' E 139°44'0 0.0
2018-Jun-16 03:29N 35°23' E 139°44'0 0.0
2018-Jun-16 02:56N 35°23' E 139°44'0 0.0
2018-Jun-16 02:29N 35°23' E 139°44'0 0.0
2018-Jun-16 01:59N 35°23' E 139°44'0 0.0
2018-Jun-16 01:29N 35°23' E 139°44'0 0.1
2018-Jun-16 00:59N 35°23' E 139°45'0 0.0
2018-Jun-16 00:29N 35°23' E 139°45'0 0.0
2018-Jun-15 23:59N 35°23' E 139°45'0 0.0
2018-Jun-15 23:29N 35°23' E 139°45'0 0.0
2018-Jun-15 22:59N 35°23' E 139°45'0 0.6
2018-Jun-15 22:31N 35°24' E 139°45'510.1
2018-Jun-15 22:01N 35°27' E 139°49'611.7
2018-Jun-15 21:29N 35°31' E 139°55'711.0
2018-Jun-15 20:52N 35°34' E 140°03'0 0.0
2018-Jun-15 09:41N 35°34' E 140°02'1 0.3
2018-Jun-15 04:46N 35°33' E 140°00'0 0.0
2018-Jun-15 04:28N 35°33' E 140°00'0 0.0
2018-Jun-15 03:58N 35°33' E 140°00'4 4.2
2018-Jun-15 03:00N 35°31' E 139°56'5 9.2
2018-Jun-15 02:30N 35°28' E 139°52'5 9.3
2018-Jun-15 02:00N 35°26' E 139°47'5 9.1
2018-Jun-15 01:30N 35°23' E 139°42'3 6.6
2018-Jun-15 01:00N 35°23' E 139°38'0 0.0
2018-Jun-15 00:29N 35°23' E 139°38'0 0.0
2018-Jun-14 23:59N 35°23' E 139°38'0 0.0
2018-Jun-14 23:29N 35°23' E 139°38'0 0.0
2018-Jun-14 22:59N 35°23' E 139°38'0 0.1
2018-Jun-14 22:30N 35°23' E 139°38'3 5.5
2018-Jun-14 22:00N 35°23' E 139°42'2 3.2
2018-Jun-14 21:25N 35°22' E 139°44'0 0.0
2018-Jun-14 20:58N 35°22' E 139°44'0 0.0
2018-Jun-14 20:28N 35°22' E 139°44'0 0.0
2018-Jun-14 19:58N 35°22' E 139°44'0 0.0
2018-Jun-14 19:28N 35°22' E 139°44'0 0.1
2018-Jun-14 18:58N 35°22' E 139°44'0 0.1
2018-Jun-14 18:28N 35°22' E 139°44'0 0.0
2018-Jun-14 17:58N 35°22' E 139°44'0 0.0
2018-Jun-14 17:28N 35°22' E 139°44'0 0.0
2018-Jun-14 16:58N 35°22' E 139°44'0 0.1
2018-Jun-14 16:28N 35°22' E 139°44'0 0.1
2018-Jun-14 15:58N 35°22' E 139°44'0 0.0
2018-Jun-14 15:28N 35°22' E 139°44'0 0.0
2018-Jun-14 14:58N 35°22' E 139°44'0 0.0
2018-Jun-14 14:28N 35°22' E 139°44'0 0.0
2018-Jun-14 13:58N 35°22' E 139°44'0 0.0
2018-Jun-14 13:28N 35°22' E 139°44'0 0.0
2018-Jun-14 12:58N 35°22' E 139°44'0 0.0
2018-Jun-14 12:28N 35°22' E 139°44'0 0.0
2018-Jun-14 11:58N 35°22' E 139°44'0 0.0
2018-Jun-14 11:28N 35°22' E 139°44'0 0.0
2018-Jun-14 10:55N 35°22' E 139°44'0 0.0
2018-Jun-14 10:28N 35°22' E 139°44'0 0.0
2018-Jun-14 09:58N 35°22' E 139°44'0 0.0
2018-Jun-14 09:28N 35°22' E 139°44'0 0.1
2018-Jun-14 09:00N 35°22' E 139°44'5 9.2
2018-Jun-14 08:30N 35°17' E 139°45'510.6
2018-Jun-14 08:00N 35°12' E 139°47'248 6.3
2018-Jun-12 16:39N 33°50' E 135°03'211.5
2018-Jun-12 16:30N 33°51' E 135°02'611.5
2018-Jun-12 15:59N 33°56' E 134°57'611.4
2018-Jun-12 15:29N 34°01' E 134°53'511.0
2018-Jun-12 15:00N 34°04' E 134°49'811.5
2018-Jun-12 14:18N 34°11' E 134°42'411.6
2018-Jun-12 13:59N 34°13' E 134°40'611.5
2018-Jun-12 13:28N 34°17' E 134°34'510.3
2018-Jun-12 13:00N 34°19' E 134°28'510.8
2018-Jun-12 12:30N 34°21' E 134°22'510.4
2018-Jun-12 12:00N 34°23' E 134°17'  
Track history (hours):
 
Tides and Currents Weather Stations Pressure Air Temp Water Temp Dewpoint Dewpoint Depression Visibility Wind Speed Wind Dir Waves Ship Positions

Jfe Mercury

Last reported at 2018-Jun-22 02:31 UTC. Time now 2018-Jun-24 07:22 UTC.
Position N 33°45' E 135°09'.

Length 152 m; draft 4.1 m.

Type: Cargo ship. MMSI: 431000822.

Date/timePositionNaut miles runAvg speedWind from/ knotsBaromVisibWave heightAir tempDewpointWater temp
2018-Jun-22 02:31N 33°45' E 135°09'010.1
2018-Jun-22 02:29N 33°45' E 135°08'510.8
2018-Jun-22 02:00N 33°49' E 135°04'511.0
2018-Jun-22 01:30N 33°53' E 134°60'610.9
2018-Jun-22 01:00N 33°57' E 134°56'611.1
2018-Jun-22 00:30N 34°02' E 134°51'611.2
2018-Jun-22 00:00N 34°06' E 134°48'811.0
2018-Jun-21 23:19N 34°12' E 134°42'911.3
2018-Jun-21 22:32N 34°17' E 134°33'111.2
2018-Jun-21 22:29N 34°17' E 134°32'611.3
2018-Jun-21 21:59N 34°19' E 134°26'711.0
2018-Jun-21 21:19N 34°22' E 134°18'411.4
2018-Jun-21 20:59N 34°24' E 134°14'6 0.1
2018-Jun-20 05:06N 34°25' E 134°21'111.3
2018-Jun-20 05:00N 34°25' E 134°22'611.3
2018-Jun-20 04:30N 34°27' E 134°28'611.3
2018-Jun-20 04:00N 34°29' E 134°35'611.4
2018-Jun-20 03:30N 34°31' E 134°41'611.6
2018-Jun-20 03:00N 34°33' E 134°48'711.6
2018-Jun-20 02:22N 34°36' E 134°56'5 9.7
2018-Jun-20 01:50N 34°37' E 135°02'3 9.3
2018-Jun-20 01:30N 34°36' E 135°06'510.6
2018-Jun-20 01:00N 34°36' E 135°12'510.6
2018-Jun-20 00:30N 34°37' E 135°19'510.2
2018-Jun-20 00:00N 34°36' E 135°25'1 0.4
2018-Jun-19 21:56N 34°35' E 135°26'2 4.5
2018-Jun-19 21:31N 34°36' E 135°24'4 8.7
2018-Jun-19 21:01N 34°35' E 135°19'1 1.9
2018-Jun-19 20:28N 34°35' E 135°18'0 0.0
2018-Jun-19 19:58N 34°35' E 135°18'0 0.0
2018-Jun-19 19:25N 34°35' E 135°18'1 3.6
2018-Jun-19 19:00N 34°34' E 135°16'510.5
2018-Jun-19 18:30N 34°29' E 135°12'510.6
2018-Jun-19 18:00N 34°25' E 135°09'510.6
2018-Jun-19 17:30N 34°21' E 135°04'510.3
2018-Jun-19 17:00N 34°18' E 134°60'612.0
2018-Jun-19 16:30N 34°12' E 134°60'611.6
2018-Jun-19 16:01N 34°06' E 135°01'611.8
2018-Jun-19 15:30N 34°00' E 135°01'612.0
2018-Jun-19 15:01N 33°54' E 135°02'611.5
2018-Jun-19 14:28N 33°49' E 135°05'  
2018-Jun-16 18:13N 35°13' E 139°46'211.3
2018-Jun-16 18:00N 35°15' E 139°46'611.0
2018-Jun-16 17:30N 35°20' E 139°43'510.7
2018-Jun-16 17:00N 35°25' E 139°43'3 6.1
2018-Jun-16 16:30N 35°28' E 139°43'0 0.0
2018-Jun-16 16:00N 35°28' E 139°43'0 0.0
2018-Jun-16 15:30N 35°28' E 139°43'0 0.0
2018-Jun-16 15:00N 35°28' E 139°43'0 0.0
2018-Jun-16 14:30N 35°28' E 139°43'0 0.0
2018-Jun-16 13:57N 35°28' E 139°43'0 0.0
2018-Jun-16 13:30N 35°28' E 139°43'0 0.0
2018-Jun-16 13:00N 35°28' E 139°43'0 0.0
2018-Jun-16 12:30N 35°28' E 139°43'0 0.3
2018-Jun-16 12:00N 35°28' E 139°43'4 8.7
2018-Jun-16 11:30N 35°24' E 139°45'1 0.9
2018-Jun-16 10:59N 35°23' E 139°44'0 0.0
2018-Jun-16 10:29N 35°23' E 139°44'0 0.0
2018-Jun-16 09:59N 35°23' E 139°44'0 0.0
2018-Jun-16 09:29N 35°23' E 139°44'0 0.1
2018-Jun-16 08:59N 35°23' E 139°44'0 0.0
2018-Jun-16 08:29N 35°23' E 139°44'0 0.1
2018-Jun-16 07:59N 35°23' E 139°45'0 0.0
2018-Jun-16 07:29N 35°23' E 139°45'0 0.0
2018-Jun-16 06:59N 35°23' E 139°45'0 0.1
2018-Jun-16 06:29N 35°23' E 139°44'0 0.0
2018-Jun-16 05:59N 35°23' E 139°44'0 0.0
2018-Jun-16 05:29N 35°23' E 139°44'0 0.0
2018-Jun-16 04:59N 35°23' E 139°44'0 0.0
2018-Jun-16 04:29N 35°23' E 139°44'0 0.0
2018-Jun-16 03:59N 35°23' E 139°44'0 0.0
2018-Jun-16 03:29N 35°23' E 139°44'0 0.0
2018-Jun-16 02:56N 35°23' E 139°44'0 0.0
2018-Jun-16 02:29N 35°23' E 139°44'0 0.0
2018-Jun-16 01:59N 35°23' E 139°44'0 0.0
2018-Jun-16 01:29N 35°23' E 139°44'0 0.1
2018-Jun-16 00:59N 35°23' E 139°45'0 0.0
2018-Jun-16 00:29N 35°23' E 139°45'0 0.0
2018-Jun-15 23:59N 35°23' E 139°45'0 0.0
2018-Jun-15 23:29N 35°23' E 139°45'0 0.0
2018-Jun-15 22:59N 35°23' E 139°45'0 0.6
2018-Jun-15 22:31N 35°24' E 139°45'510.1
2018-Jun-15 22:01N 35°27' E 139°49'611.7
2018-Jun-15 21:29N 35°31' E 139°55'711.0
2018-Jun-15 20:52N 35°34' E 140°03'0 0.0
2018-Jun-15 09:41N 35°34' E 140°02'1 0.3
2018-Jun-15 04:46N 35°33' E 140°00'0 0.0
2018-Jun-15 04:28N 35°33' E 140°00'0 0.0
2018-Jun-15 03:58N 35°33' E 140°00'4 4.2
2018-Jun-15 03:00N 35°31' E 139°56'5 9.2
2018-Jun-15 02:30N 35°28' E 139°52'5 9.3
2018-Jun-15 02:00N 35°26' E 139°47'5 9.1
2018-Jun-15 01:30N 35°23' E 139°42'3 6.6
2018-Jun-15 01:00N 35°23' E 139°38'0 0.0
2018-Jun-15 00:29N 35°23' E 139°38'0 0.0
2018-Jun-14 23:59N 35°23' E 139°38'0 0.0
2018-Jun-14 23:29N 35°23' E 139°38'0 0.0
2018-Jun-14 22:59N 35°23' E 139°38'0 0.1
2018-Jun-14 22:30N 35°23' E 139°38'3 5.5
2018-Jun-14 22:00N 35°23' E 139°42'2 3.2
2018-Jun-14 21:25N 35°22' E 139°44'0 0.0
2018-Jun-14 20:58N 35°22' E 139°44'0 0.0
2018-Jun-14 20:28N 35°22' E 139°44'0 0.0
2018-Jun-14 19:58N 35°22' E 139°44'0 0.0
2018-Jun-14 19:28N 35°22' E 139°44'0 0.1
2018-Jun-14 18:58N 35°22' E 139°44'0 0.1
2018-Jun-14 18:28N 35°22' E 139°44'0 0.0
2018-Jun-14 17:58N 35°22' E 139°44'0 0.0
2018-Jun-14 17:28N 35°22' E 139°44'0 0.0
2018-Jun-14 16:58N 35°22' E 139°44'0 0.1
2018-Jun-14 16:28N 35°22' E 139°44'0 0.1
2018-Jun-14 15:58N 35°22' E 139°44'0 0.0
2018-Jun-14 15:28N 35°22' E 139°44'0 0.0
2018-Jun-14 14:58N 35°22' E 139°44'0 0.0
2018-Jun-14 14:28N 35°22' E 139°44'0 0.0
2018-Jun-14 13:58N 35°22' E 139°44'0 0.0
2018-Jun-14 13:28N 35°22' E 139°44'0 0.0
2018-Jun-14 12:58N 35°22' E 139°44'0 0.0
2018-Jun-14 12:28N 35°22' E 139°44'0 0.0
2018-Jun-14 11:58N 35°22' E 139°44'0 0.0
2018-Jun-14 11:28N 35°22' E 139°44'0 0.0
2018-Jun-14 10:55N 35°22' E 139°44'0 0.0
2018-Jun-14 10:28N 35°22' E 139°44'0 0.0
2018-Jun-14 09:58N 35°22' E 139°44'0 0.0
2018-Jun-14 09:28N 35°22' E 139°44'0 0.1
2018-Jun-14 09:00N 35°22' E 139°44'5 9.2
2018-Jun-14 08:30N 35°17' E 139°45'510.6
2018-Jun-14 08:00N 35°12' E 139°47'248 6.3
2018-Jun-12 16:39N 33°50' E 135°03'211.5
2018-Jun-12 16:30N 33°51' E 135°02'611.5
2018-Jun-12 15:59N 33°56' E 134°57'611.4
2018-Jun-12 15:29N 34°01' E 134°53'511.0
2018-Jun-12 15:00N 34°04' E 134°49'811.5
2018-Jun-12 14:18N 34°11' E 134°42'411.6
2018-Jun-12 13:59N 34°13' E 134°40'611.5
2018-Jun-12 13:28N 34°17' E 134°34'510.3
2018-Jun-12 13:00N 34°19' E 134°28'510.8
2018-Jun-12 12:30N 34°21' E 134°22'510.4
2018-Jun-12 12:00N 34°23' E 134°17'  

Dump ship's entire track history